Dutch Fork, South Carolina
Current Conditions -  °F | °C
As of 11:56 AM on Thursday 30 Oct 2014 (Local Time) from KCAE Reporting Station
Clear Clear  
Wind Chill: 68°   Ceiling: Unl
Heat Index: 68°   Visibility: 10mi
Dew Point: 40°   Wind: 10mph
Humidity: 36%   Direction: 10°N
Pressure: 30.04"   Gusts: NA
Location:  34.0549°N, 81.113°W
Report Text: KCAE 301556Z 01009KT 10SM CLR 20/04 A3004 RMK AO2 SLP171 T02000044
Loading
Personal Weather Stations






























Interactive Weather Map
Tropical Storm Tracking
New forecast layout! Learn more

10-Day Weather Forecast

Advertisements
Track Severe Weather on mobile